KSJC/SJC METAR and TAF weather

Enter ICAO airport designator
Station Type Date Time Source
KSJC METAR 2020/01/26 03:53 UTC NOAA

KSJC 260353Z 35003KT 10SM FEW001 BKN029 OVC200 16/12 A3011 RMK AO2 SLP196 T01560122 $


Station Type Date Time Source
KSJC Decoded METAR 2020/01/26 03:53 UTC NOAA

SAN JOSE INTERNATIONAL AIRPORT, CA, United States (KSJC) 37-22N 121-55W 25M
Jan 25, 2020 - 10:53 PM EST / 2020.01.26 0353 UTC
Wind: from the N (350 degrees) at 3 MPH (3 KT):0
Visibility: 10 mile(s):0
Sky conditions: overcast
Temperature: 60.1 F (15.6 C)
Dew Point: 54.0 F (12.2 C)
Relative Humidity: 80%
Pressure (altimeter): 30.11 in. Hg (1019 hPa)
ob: KSJC 260353Z 35003KT 10SM FEW001 BKN029 OVC200 16/12 A3011 RMK AO2 SLP196 T01560122
cycle: 4

Station Type Date Time Source
KSJC TAF 2020/01/25 18:33 UTC NOAA

TAF KSJC 251729Z 2518/2618 15004KT 6SM BR BKN005 BKN030 OVC050
TEMPO 2518/2519 3SM BR BKN005 OVC009
FM251900 VRB04KT 6SM BR SCT015 BKN040
FM252200 29006KT P6SM FEW015 SCT040 BKN050
FM260300 14005KT 6SM BR SCT010 BKN025 BKN040
FM261000 VRB03KT 5SM -SHRA BR BKN010 BKN020 OVC030
FM261500 13003KT 5SM BR OVC010
TEMPO 2615/2618 2SM -RA BR OVC008

Example: see airport list